sensor_id;sensor_type;location;lat;lon;timestamp;temperature;humidity
2639;DHT22;1329;51.384;7.122;2023-05-29T00:00:03;18.50;1.00
2639;DHT22;1329;51.384;7.122;2023-05-29T00:02:32;18.40;1.00
2639;DHT22;1329;51.384;7.122;2023-05-29T00:04:59;18.40;1.00
2639;DHT22;1329;51.384;7.122;2023-05-29T00:07:29;18.40;1.00
2639;DHT22;1329;51.384;7.122;2023-05-29T00:09:57;18.30;1.00
2639;DHT22;1329;51.384;7.122;2023-05-29T00:12:24;18.30;1.00
2639;DHT22;1329;51.384;7.122;2023-05-29T00:14:52;18.30;1.00
2639;DHT22;1329;51.384;7.122;2023-05-29T00:17:19;18.20;1.00
2639;DHT22;1329;51.384;7.122;2023-05-29T00:19:46;18.20;1.00
2639;DHT22;1329;51.384;7.122;2023-05-29T00:22:14;18.20;1.00
2639;DHT22;1329;51.384;7.122;2023-05-29T00:24:42;18.10;1.00
2639;DHT22;1329;51.384;7.122;2023-05-29T00:27:10;18.10;1.00
2639;DHT22;1329;51.384;7.122;2023-05-29T00:29:40;18.10;1.00
2639;DHT22;1329;51.384;7.122;2023-05-29T00:32:10;18.00;1.00
2639;DHT22;1329;51.384;7.122;2023-05-29T00:34:38;18.00;1.00
2639;DHT22;1329;51.384;7.122;2023-05-29T00:37:05;18.00;1.00
2639;DHT22;1329;51.384;7.122;2023-05-29T00:39:32;17.90;1.00
2639;DHT22;1329;51.384;7.122;2023-05-29T00:42:01;17.90;1.00
2639;DHT22;1329;51.384;7.122;2023-05-29T00:44:28;17.90;1.00
2639;DHT22;1329;51.384;7.122;2023-05-29T00:46:56;17.80;1.00
2639;DHT22;1329;51.384;7.122;2023-05-29T00:49:24;17.80;1.00
2639;DHT22;1329;51.384;7.122;2023-05-29T00:51:52;17.70;1.00
2639;DHT22;1329;51.384;7.122;2023-05-29T00:54:23;17.70;1.00
2639;DHT22;1329;51.384;7.122;2023-05-29T00:56:53;17.70;1.00
2639;DHT22;1329;51.384;7.122;2023-05-29T00:59:22;17.70;1.00
2639;DHT22;1329;51.384;7.122;2023-05-29T01:01:49;17.60;1.00
2639;DHT22;1329;51.384;7.122;2023-05-29T01:04:17;17.60;1.00
2639;DHT22;1329;51.384;7.122;2023-05-29T01:06:44;17.60;1.00
2639;DHT22;1329;51.384;7.122;2023-05-29T01:09:11;17.50;1.00
2639;DHT22;1329;51.384;7.122;2023-05-29T01:11:49;17.50;1.00
2639;DHT22;1329;51.384;7.122;2023-05-29T01:14:25;17.50;1.00
2639;DHT22;1329;51.384;7.122;2023-05-29T01:17:00;17.40;1.00
2639;DHT22;1329;51.384;7.122;2023-05-29T01:22:45;17.40;1.00
2639;DHT22;1329;51.384;7.122;2023-05-29T01:25:24;17.40;1.00
2639;DHT22;1329;51.384;7.122;2023-05-29T01:27:59;17.30;1.00
2639;DHT22;1329;51.384;7.122;2023-05-29T01:30:28;17.20;1.00
2639;DHT22;1329;51.384;7.122;2023-05-29T01:32:57;17.20;1.00
2639;DHT22;1329;51.384;7.122;2023-05-29T01:35:24;17.10;1.00
2639;DHT22;1329;51.384;7.122;2023-05-29T01:37:52;17.10;1.00
2639;DHT22;1329;51.384;7.122;2023-05-29T01:40:19;17.10;1.00
2639;DHT22;1329;51.384;7.122;2023-05-29T01:42:46;17.00;1.00
2639;DHT22;1329;51.384;7.122;2023-05-29T01:45:14;16.90;1.00
2639;DHT22;1329;51.384;7.122;2023-05-29T01:47:42;16.80;1.00
2639;DHT22;1329;51.384;7.122;2023-05-29T01:50:10;16.70;1.00
2639;DHT22;1329;51.384;7.122;2023-05-29T01:52:40;16.60;1.00
2639;DHT22;1329;51.384;7.122;2023-05-29T01:55:07;16.50;1.00
2639;DHT22;1329;51.384;7.122;2023-05-29T01:57:35;16.40;1.00
2639;DHT22;1329;51.384;7.122;2023-05-29T02:00:02;16.40;1.00
2639;DHT22;1329;51.384;7.122;2023-05-29T02:02:37;16.30;1.00
2639;DHT22;1329;51.384;7.122;2023-05-29T02:05:05;16.30;1.00
2639;DHT22;1329;51.384;7.122;2023-05-29T02:07:33;16.30;1.00
2639;DHT22;1329;51.384;7.122;2023-05-29T02:10:02;16.30;1.00
2639;DHT22;1329;51.384;7.122;2023-05-29T02:12:29;16.30;1.00
2639;DHT22;1329;51.384;7.122;2023-05-29T02:14:58;16.20;1.00
2639;DHT22;1329;51.384;7.122;2023-05-29T02:17:26;16.20;1.00
2639;DHT22;1329;51.384;7.122;2023-05-29T02:19:54;16.20;1.00
2639;DHT22;1329;51.384;7.122;2023-05-29T02:22:21;16.10;1.00
2639;DHT22;1329;51.384;7.122;2023-05-29T02:24:48;16.10;1.00
2639;DHT22;1329;51.384;7.122;2023-05-29T02:27:15;16.00;1.00
2639;DHT22;1329;51.384;7.122;2023-05-29T02:29:42;16.00;1.00
2639;DHT22;1329;51.384;7.122;2023-05-29T02:32:09;15.90;1.00
2639;DHT22;1329;51.384;7.122;2023-05-29T02:34:37;15.80;1.00
2639;DHT22;1329;51.384;7.122;2023-05-29T02:37:05;15.80;1.00
2639;DHT22;1329;51.384;7.122;2023-05-29T02:39:32;15.80;1.00
2639;DHT22;1329;51.384;7.122;2023-05-29T02:41:59;15.80;1.00
2639;DHT22;1329;51.384;7.122;2023-05-29T02:44:26;15.70;1.00
2639;DHT22;1329;51.384;7.122;2023-05-29T02:46:53;15.70;1.00
2639;DHT22;1329;51.384;7.122;2023-05-29T02:49:20;15.60;1.00
2639;DHT22;1329;51.384;7.122;2023-05-29T02:51:47;15.70;1.00
2639;DHT22;1329;51.384;7.122;2023-05-29T02:54:15;15.60;1.00
2639;DHT22;1329;51.384;7.122;2023-05-29T02:56:42;15.60;1.00
2639;DHT22;1329;51.384;7.122;2023-05-29T02:59:09;15.50;1.00
2639;DHT22;1329;51.384;7.122;2023-05-29T03:01:36;15.50;1.00
2639;DHT22;1329;51.384;7.122;2023-05-29T03:04:03;15.50;1.00
2639;DHT22;1329;51.384;7.122;2023-05-29T03:06:29;15.50;1.00
2639;DHT22;1329;51.384;7.122;2023-05-29T03:08:57;15.50;1.00
2639;DHT22;1329;51.384;7.122;2023-05-29T03:11:26;15.50;1.00
2639;DHT22;1329;51.384;7.122;2023-05-29T03:13:54;15.50;1.00
2639;DHT22;1329;51.384;7.122;2023-05-29T03:16:21;15.40;1.00
2639;DHT22;1329;51.384;7.122;2023-05-29T03:18:48;15.50;1.00
2639;DHT22;1329;51.384;7.122;2023-05-29T03:21:16;15.50;1.00
2639;DHT22;1329;51.384;7.122;2023-05-29T03:23:43;15.50;1.00
2639;DHT22;1329;51.384;7.122;2023-05-29T03:26:10;15.50;1.00
2639;DHT22;1329;51.384;7.122;2023-05-29T03:28:39;15.40;1.00
2639;DHT22;1329;51.384;7.122;2023-05-29T03:31:06;15.40;1.00
2639;DHT22;1329;51.384;7.122;2023-05-29T03:33:34;15.40;1.00
2639;DHT22;1329;51.384;7.122;2023-05-29T03:36:02;15.30;1.00
2639;DHT22;1329;51.384;7.122;2023-05-29T03:38:29;15.30;1.00
2639;DHT22;1329;51.384;7.122;2023-05-29T03:40:56;15.30;1.00
2639;DHT22;1329;51.384;7.122;2023-05-29T03:43:23;15.30;1.00
2639;DHT22;1329;51.384;7.122;2023-05-29T03:45:51;15.20;1.00
2639;DHT22;1329;51.384;7.122;2023-05-29T03:48:18;15.20;1.00
2639;DHT22;1329;51.384;7.122;2023-05-29T03:50:46;15.20;1.00
2639;DHT22;1329;51.384;7.122;2023-05-29T03:53:13;15.20;1.00
2639;DHT22;1329;51.384;7.122;2023-05-29T03:55:40;15.20;1.00
2639;DHT22;1329;51.384;7.122;2023-05-29T03:58:07;15.10;1.00
2639;DHT22;1329;51.384;7.122;2023-05-29T04:00:34;15.10;1.00
2639;DHT22;1329;51.384;7.122;2023-05-29T04:03:03;15.10;1.00
2639;DHT22;1329;51.384;7.122;2023-05-29T04:05:30;15.10;1.00
2639;DHT22;1329;51.384;7.122;2023-05-29T04:07:57;15.10;1.00
2639;DHT22;1329;51.384;7.122;2023-05-29T04:10:24;15.00;1.00
2639;DHT22;1329;51.384;7.122;2023-05-29T04:12:51;15.00;1.00
2639;DHT22;1329;51.384;7.122;2023-05-29T04:15:18;15.00;1.00
2639;DHT22;1329;51.384;7.122;2023-05-29T04:17:52;15.00;1.00
2639;DHT22;1329;51.384;7.122;2023-05-29T04:20:24;14.90;1.00
2639;DHT22;1329;51.384;7.122;2023-05-29T04:22:51;14.90;1.00
2639;DHT22;1329;51.384;7.122;2023-05-29T04:25:18;14.90;1.00
2639;DHT22;1329;51.384;7.122;2023-05-29T04:27:45;15.00;1.00
2639;DHT22;1329;51.384;7.122;2023-05-29T04:30:15;14.90;1.00
2639;DHT22;1329;51.384;7.122;2023-05-29T04:32:45;15.00;1.00
2639;DHT22;1329;51.384;7.122;2023-05-29T04:35:13;15.00;1.00
2639;DHT22;1329;51.384;7.122;2023-05-29T04:37:42;14.90;1.00
2639;DHT22;1329;51.384;7.122;2023-05-29T04:40:09;15.00;1.00
2639;DHT22;1329;51.384;7.122;2023-05-29T04:42:37;15.00;1.00
2639;DHT22;1329;51.384;7.122;2023-05-29T04:45:06;15.00;1.00
2639;DHT22;1329;51.384;7.122;2023-05-29T04:47:36;15.00;1.00
2639;DHT22;1329;51.384;7.122;2023-05-29T04:50:10;15.00;1.00
2639;DHT22;1329;51.384;7.122;2023-05-29T04:52:37;15.00;1.00
2639;DHT22;1329;51.384;7.122;2023-05-29T04:55:06;15.00;1.00
2639;DHT22;1329;51.384;7.122;2023-05-29T04:57:33;15.00;1.00
2639;DHT22;1329;51.384;7.122;2023-05-29T05:00:00;14.90;1.00
2639;DHT22;1329;51.384;7.122;2023-05-29T05:02:30;15.00;1.00
2639;DHT22;1329;51.384;7.122;2023-05-29T05:04:58;14.90;1.00
2639;DHT22;1329;51.384;7.122;2023-05-29T05:07:25;14.90;1.00
2639;DHT22;1329;51.384;7.122;2023-05-29T05:09:52;14.90;1.00
2639;DHT22;1329;51.384;7.122;2023-05-29T05:12:20;14.90;1.00
2639;DHT22;1329;51.384;7.122;2023-05-29T05:14:47;14.90;1.00
2639;DHT22;1329;51.384;7.122;2023-05-29T05:17:14;14.90;1.00
2639;DHT22;1329;51.384;7.122;2023-05-29T05:19:41;14.90;1.00
2639;DHT22;1329;51.384;7.122;2023-05-29T05:22:08;14.90;1.00
2639;DHT22;1329;51.384;7.122;2023-05-29T05:24:35;14.90;1.00
2639;DHT22;1329;51.384;7.122;2023-05-29T05:27:03;14.90;1.00
2639;DHT22;1329;51.384;7.122;2023-05-29T05:29:32;14.90;1.00
2639;DHT22;1329;51.384;7.122;2023-05-29T05:31:59;14.90;1.00
2639;DHT22;1329;51.384;7.122;2023-05-29T05:34:26;15.00;1.00
2639;DHT22;1329;51.384;7.122;2023-05-29T05:36:53;15.00;1.00
2639;DHT22;1329;51.384;7.122;2023-05-29T05:39:20;15.00;1.00
2639;DHT22;1329;51.384;7.122;2023-05-29T05:41:47;15.00;1.00
2639;DHT22;1329;51.384;7.122;2023-05-29T05:44:14;15.00;1.00
2639;DHT22;1329;51.384;7.122;2023-05-29T05:46:42;15.00;1.00
2639;DHT22;1329;51.384;7.122;2023-05-29T05:49:10;15.00;1.00
2639;DHT22;1329;51.384;7.122;2023-05-29T05:51:37;15.00;1.00
2639;DHT22;1329;51.384;7.122;2023-05-29T05:54:04;15.00;1.00
2639;DHT22;1329;51.384;7.122;2023-05-29T05:56:31;15.00;1.00
2639;DHT22;1329;51.384;7.122;2023-05-29T05:58:58;15.00;1.00
2639;DHT22;1329;51.384;7.122;2023-05-29T06:01:26;15.10;1.00
2639;DHT22;1329;51.384;7.122;2023-05-29T06:03:54;15.10;1.00
2639;DHT22;1329;51.384;7.122;2023-05-29T06:06:21;15.10;1.00
2639;DHT22;1329;51.384;7.122;2023-05-29T06:08:49;15.10;1.00
2639;DHT22;1329;51.384;7.122;2023-05-29T06:11:16;15.10;1.00
2639;DHT22;1329;51.384;7.122;2023-05-29T06:13:43;15.20;1.00
2639;DHT22;1329;51.384;7.122;2023-05-29T06:16:10;15.20;1.00
2639;DHT22;1329;51.384;7.122;2023-05-29T06:18:37;15.20;1.00
2639;DHT22;1329;51.384;7.122;2023-05-29T06:21:06;15.20;1.00
2639;DHT22;1329;51.384;7.122;2023-05-29T06:23:35;15.20;1.00
2639;DHT22;1329;51.384;7.122;2023-05-29T06:26:02;15.30;1.00
2639;DHT22;1329;51.384;7.122;2023-05-29T06:28:29;15.40;1.00
2639;DHT22;1329;51.384;7.122;2023-05-29T06:30:56;15.40;1.00
2639;DHT22;1329;51.384;7.122;2023-05-29T06:33:23;15.50;1.00
2639;DHT22;1329;51.384;7.122;2023-05-29T06:35:51;15.50;1.00
2639;DHT22;1329;51.384;7.122;2023-05-29T06:38:19;15.60;1.00
2639;DHT22;1329;51.384;7.122;2023-05-29T06:40:46;15.60;1.00
2639;DHT22;1329;51.384;7.122;2023-05-29T06:43:13;15.60;1.00
2639;DHT22;1329;51.384;7.122;2023-05-29T06:45:40;15.60;1.00
2639;DHT22;1329;51.384;7.122;2023-05-29T06:48:07;15.70;1.00
2639;DHT22;1329;51.384;7.122;2023-05-29T06:50:34;15.70;1.00
2639;DHT22;1329;51.384;7.122;2023-05-29T06:53:01;15.80;1.00
2639;DHT22;1329;51.384;7.122;2023-05-29T06:55:29;15.80;1.00
2639;DHT22;1329;51.384;7.122;2023-05-29T06:57:56;15.80;1.00
2639;DHT22;1329;51.384;7.122;2023-05-29T07:00:27;15.90;1.00
2639;DHT22;1329;51.384;7.122;2023-05-29T07:02:56;15.90;1.00
2639;DHT22;1329;51.384;7.122;2023-05-29T07:05:30;15.90;1.00
2639;DHT22;1329;51.384;7.122;2023-05-29T07:07:57;15.90;1.00
2639;DHT22;1329;51.384;7.122;2023-05-29T07:10:25;15.90;1.00
2639;DHT22;1329;51.384;7.122;2023-05-29T07:12:53;16.00;1.00
2639;DHT22;1329;51.384;7.122;2023-05-29T07:15:20;16.00;1.00
2639;DHT22;1329;51.384;7.122;2023-05-29T07:17:47;16.00;1.00
2639;DHT22;1329;51.384;7.122;2023-05-29T07:20:14;16.10;1.00
2639;DHT22;1329;51.384;7.122;2023-05-29T07:22:42;16.10;1.00
2639;DHT22;1329;51.384;7.122;2023-05-29T07:25:09;16.10;1.00
2639;DHT22;1329;51.384;7.122;2023-05-29T07:27:36;16.10;1.00
2639;DHT22;1329;51.384;7.122;2023-05-29T07:30:06;16.20;1.00
2639;DHT22;1329;51.384;7.122;2023-05-29T07:32:33;16.20;1.00
2639;DHT22;1329;51.384;7.122;2023-05-29T07:35:01;16.20;1.00
2639;DHT22;1329;51.384;7.122;2023-05-29T07:37:40;16.30;1.00
2639;DHT22;1329;51.384;7.122;2023-05-29T07:40:15;16.40;1.00
2639;DHT22;1329;51.384;7.122;2023-05-29T07:42:48;16.40;1.00
2639;DHT22;1329;51.384;7.122;2023-05-29T07:45:16;16.40;1.00
2639;DHT22;1329;51.384;7.122;2023-05-29T07:47:43;16.40;1.00
2639;DHT22;1329;51.384;7.122;2023-05-29T07:50:10;16.50;1.00
2639;DHT22;1329;51.384;7.122;2023-05-29T07:52:38;16.50;1.00
2639;DHT22;1329;51.384;7.122;2023-05-29T07:55:05;16.50;1.00
2639;DHT22;1329;51.384;7.122;2023-05-29T07:57:32;16.60;1.00
2639;DHT22;1329;51.384;7.122;2023-05-29T08:00:00;16.70;1.00
2639;DHT22;1329;51.384;7.122;2023-05-29T08:02:36;16.70;1.00
2639;DHT22;1329;51.384;7.122;2023-05-29T08:05:03;16.80;1.00
2639;DHT22;1329;51.384;7.122;2023-05-29T08:07:31;16.90;1.00
2639;DHT22;1329;51.384;7.122;2023-05-29T08:09:58;16.90;1.00
2639;DHT22;1329;51.384;7.122;2023-05-29T08:12:25;17.00;1.00
2639;DHT22;1329;51.384;7.122;2023-05-29T08:14:52;17.10;1.00
2639;DHT22;1329;51.384;7.122;2023-05-29T08:17:19;17.10;1.00
2639;DHT22;1329;51.384;7.122;2023-05-29T08:19:47;17.20;1.00
2639;DHT22;1329;51.384;7.122;2023-05-29T08:22:15;17.20;1.00
2639;DHT22;1329;51.384;7.122;2023-05-29T08:24:41;17.30;1.00
2639;DHT22;1329;51.384;7.122;2023-05-29T08:27:08;17.30;1.00
2639;DHT22;1329;51.384;7.122;2023-05-29T08:29:35;17.40;1.00
2639;DHT22;1329;51.384;7.122;2023-05-29T08:32:04;17.50;1.00
2639;DHT22;1329;51.384;7.122;2023-05-29T08:34:31;17.50;1.00
2639;DHT22;1329;51.384;7.122;2023-05-29T08:37:00;17.60;1.00
2639;DHT22;1329;51.384;7.122;2023-05-29T08:39:27;17.70;1.00
2639;DHT22;1329;51.384;7.122;2023-05-29T08:41:59;17.70;1.00
2639;DHT22;1329;51.384;7.122;2023-05-29T08:44:31;17.80;1.00
2639;DHT22;1329;51.384;7.122;2023-05-29T08:47:01;17.90;1.00
2639;DHT22;1329;51.384;7.122;2023-05-29T08:49:37;17.90;1.00
2639;DHT22;1329;51.384;7.122;2023-05-29T08:52:12;18.00;1.00
2639;DHT22;1329;51.384;7.122;2023-05-29T08:54:43;18.00;1.00
2639;DHT22;1329;51.384;7.122;2023-05-29T08:57:11;18.10;1.00
2639;DHT22;1329;51.384;7.122;2023-05-29T08:59:41;18.10;1.00
2639;DHT22;1329;51.384;7.122;2023-05-29T09:02:10;18.30;1.00
2639;DHT22;1329;51.384;7.122;2023-05-29T09:04:38;18.40;1.00
2639;DHT22;1329;51.384;7.122;2023-05-29T09:07:05;18.60;1.00
2639;DHT22;1329;51.384;7.122;2023-05-29T09:09:35;18.90;1.00
2639;DHT22;1329;51.384;7.122;2023-05-29T09:12:03;19.10;1.00
2639;DHT22;1329;51.384;7.122;2023-05-29T09:14:34;19.30;1.00
2639;DHT22;1329;51.384;7.122;2023-05-29T09:17:02;19.50;1.00
2639;DHT22;1329;51.384;7.122;2023-05-29T09:19:30;19.70;1.00
2639;DHT22;1329;51.384;7.122;2023-05-29T09:22:01;20.00;1.00
2639;DHT22;1329;51.384;7.122;2023-05-29T09:24:30;20.40;1.00
2639;DHT22;1329;51.384;7.122;2023-05-29T09:27:00;20.60;1.00
2639;DHT22;1329;51.384;7.122;2023-05-29T09:29:30;20.90;1.00
2639;DHT22;1329;51.384;7.122;2023-05-29T09:31:57;21.20;1.00
2639;DHT22;1329;51.384;7.122;2023-05-29T09:34:25;21.40;1.00
2639;DHT22;1329;51.384;7.122;2023-05-29T09:36:53;21.60;1.00
2639;DHT22;1329;51.384;7.122;2023-05-29T09:39:22;21.80;1.00
2639;DHT22;1329;51.384;7.122;2023-05-29T09:41:48;21.90;1.00
2639;DHT22;1329;51.384;7.122;2023-05-29T09:44:17;21.90;1.00
2639;DHT22;1329;51.384;7.122;2023-05-29T09:46:48;21.90;1.00
2639;DHT22;1329;51.384;7.122;2023-05-29T09:49:15;21.80;1.00
2639;DHT22;1329;51.384;7.122;2023-05-29T09:51:46;21.70;1.00
2639;DHT22;1329;51.384;7.122;2023-05-29T09:54:15;21.60;1.00
2639;DHT22;1329;51.384;7.122;2023-05-29T09:56:43;21.40;1.00
2639;DHT22;1329;51.384;7.122;2023-05-29T09:59:13;21.30;1.00
2639;DHT22;1329;51.384;7.122;2023-05-29T10:01:43;21.10;1.00
2639;DHT22;1329;51.384;7.122;2023-05-29T10:04:10;20.90;1.00
2639;DHT22;1329;51.384;7.122;2023-05-29T10:06:40;20.80;1.00
2639;DHT22;1329;51.384;7.122;2023-05-29T10:09:09;20.70;1.00
2639;DHT22;1329;51.384;7.122;2023-05-29T10:11:42;20.60;1.00
2639;DHT22;1329;51.384;7.122;2023-05-29T10:14:14;20.50;1.00
2639;DHT22;1329;51.384;7.122;2023-05-29T10:16:47;20.40;1.00
2639;DHT22;1329;51.384;7.122;2023-05-29T10:19:21;20.40;1.00
2639;DHT22;1329;51.384;7.122;2023-05-29T10:21:53;20.40;1.00
2639;DHT22;1329;51.384;7.122;2023-05-29T10:24:21;20.40;1.00
2639;DHT22;1329;51.384;7.122;2023-05-29T10:26:49;20.40;1.00
2639;DHT22;1329;51.384;7.122;2023-05-29T10:29:22;20.50;1.00
2639;DHT22;1329;51.384;7.122;2023-05-29T10:32:05;20.50;1.00
2639;DHT22;1329;51.384;7.122;2023-05-29T10:34:42;20.60;1.00
2639;DHT22;1329;51.384;7.122;2023-05-29T10:37:21;20.60;1.00
2639;DHT22;1329;51.384;7.122;2023-05-29T10:40:03;20.60;1.00
2639;DHT22;1329;51.384;7.122;2023-05-29T10:42:43;20.60;1.00
2639;DHT22;1329;51.384;7.122;2023-05-29T10:45:11;20.70;1.00
2639;DHT22;1329;51.384;7.122;2023-05-29T10:47:39;20.70;1.00
2639;DHT22;1329;51.384;7.122;2023-05-29T10:50:06;20.70;1.00
2639;DHT22;1329;51.384;7.122;2023-05-29T10:52:34;20.70;1.00
2639;DHT22;1329;51.384;7.122;2023-05-29T10:55:02;20.80;1.00
2639;DHT22;1329;51.384;7.122;2023-05-29T10:57:30;20.90;1.00
2639;DHT22;1329;51.384;7.122;2023-05-29T11:00:06;20.90;1.00
2639;DHT22;1329;51.384;7.122;2023-05-29T11:02:40;21.00;1.00
2639;DHT22;1329;51.384;7.122;2023-05-29T11:05:23;21.00;1.00
2639;DHT22;1329;51.384;7.122;2023-05-29T11:07:56;21.10;1.00
2639;DHT22;1329;51.384;7.122;2023-05-29T11:10:44;21.10;1.00
2639;DHT22;1329;51.384;7.122;2023-05-29T11:13:23;21.20;1.00
2639;DHT22;1329;51.384;7.122;2023-05-29T11:16:14;21.20;1.00
2639;DHT22;1329;51.384;7.122;2023-05-29T11:18:48;21.20;1.00
2639;DHT22;1329;51.384;7.122;2023-05-29T11:21:31;21.20;1.00
2639;DHT22;1329;51.384;7.122;2023-05-29T11:24:02;21.30;1.00
2639;DHT22;1329;51.384;7.122;2023-05-29T11:26:31;21.30;1.00
2639;DHT22;1329;51.384;7.122;2023-05-29T11:28:59;21.30;1.00
2639;DHT22;1329;51.384;7.122;2023-05-29T11:31:28;21.40;1.00
2639;DHT22;1329;51.384;7.122;2023-05-29T11:34:01;21.50;1.00
2639;DHT22;1329;51.384;7.122;2023-05-29T11:36:31;21.60;1.00
2639;DHT22;1329;51.384;7.122;2023-05-29T11:39:01;21.60;1.00
2639;DHT22;1329;51.384;7.122;2023-05-29T11:41:29;21.70;1.00
2639;DHT22;1329;51.384;7.122;2023-05-29T11:43:57;21.80;1.00
2639;DHT22;1329;51.384;7.122;2023-05-29T11:46:59;21.80;1.00
2639;DHT22;1329;51.384;7.122;2023-05-29T11:49:30;21.90;1.00
2639;DHT22;1329;51.384;7.122;2023-05-29T11:52:08;21.90;1.00
2639;DHT22;1329;51.384;7.122;2023-05-29T11:54:36;22.00;1.00
2639;DHT22;1329;51.384;7.122;2023-05-29T11:57:03;22.00;1.00
2639;DHT22;1329;51.384;7.122;2023-05-29T11:59:31;22.00;1.00
2639;DHT22;1329;51.384;7.122;2023-05-29T12:01:59;22.00;1.00
2639;DHT22;1329;51.384;7.122;2023-05-29T12:04:29;22.10;1.00
2639;DHT22;1329;51.384;7.122;2023-05-29T12:06:56;22.00;1.00
2639;DHT22;1329;51.384;7.122;2023-05-29T12:09:26;22.10;1.00
2639;DHT22;1329;51.384;7.122;2023-05-29T12:11:54;22.10;1.00
2639;DHT22;1329;51.384;7.122;2023-05-29T12:14:21;22.10;1.00
2639;DHT22;1329;51.384;7.122;2023-05-29T12:16:48;22.10;1.00
2639;DHT22;1329;51.384;7.122;2023-05-29T12:19:15;22.20;1.00
2639;DHT22;1329;51.384;7.122;2023-05-29T12:21:43;22.20;1.00
2639;DHT22;1329;51.384;7.122;2023-05-29T12:24:10;22.20;1.00
2639;DHT22;1329;51.384;7.122;2023-05-29T12:26:37;22.30;1.00
2639;DHT22;1329;51.384;7.122;2023-05-29T12:29:04;22.30;1.00
2639;DHT22;1329;51.384;7.122;2023-05-29T12:31:33;22.40;1.00
2639;DHT22;1329;51.384;7.122;2023-05-29T12:34:01;22.50;1.00
2639;DHT22;1329;51.384;7.122;2023-05-29T12:36:28;22.60;1.00
2639;DHT22;1329;51.384;7.122;2023-05-29T12:38:57;22.60;1.00
2639;DHT22;1329;51.384;7.122;2023-05-29T12:41:25;22.70;1.00
2639;DHT22;1329;51.384;7.122;2023-05-29T12:43:53;22.80;1.00
2639;DHT22;1329;51.384;7.122;2023-05-29T12:46:22;22.90;1.00
2639;DHT22;1329;51.384;7.122;2023-05-29T12:48:53;23.00;1.00
2639;DHT22;1329;51.384;7.122;2023-05-29T12:51:22;23.10;1.00
2639;DHT22;1329;51.384;7.122;2023-05-29T12:53:50;23.20;1.00
2639;DHT22;1329;51.384;7.122;2023-05-29T12:56:21;23.30;1.00
2639;DHT22;1329;51.384;7.122;2023-05-29T12:58:50;23.40;1.00
2639;DHT22;1329;51.384;7.122;2023-05-29T13:01:17;23.40;1.00
2639;DHT22;1329;51.384;7.122;2023-05-29T13:03:44;23.50;1.00
2639;DHT22;1329;51.384;7.122;2023-05-29T13:06:11;23.50;1.00
2639;DHT22;1329;51.384;7.122;2023-05-29T13:08:38;23.60;1.00
2639;DHT22;1329;51.384;7.122;2023-05-29T13:11:05;23.60;1.00
2639;DHT22;1329;51.384;7.122;2023-05-29T13:13:33;23.60;1.00
2639;DHT22;1329;51.384;7.122;2023-05-29T13:16:00;23.60;1.00
2639;DHT22;1329;51.384;7.122;2023-05-29T13:18:28;23.60;1.00
2639;DHT22;1329;51.384;7.122;2023-05-29T13:20:55;23.50;1.00
2639;DHT22;1329;51.384;7.122;2023-05-29T13:23:22;23.60;1.00
2639;DHT22;1329;51.384;7.122;2023-05-29T13:25:49;23.50;1.00
2639;DHT22;1329;51.384;7.122;2023-05-29T13:28:16;23.50;1.00
2639;DHT22;1329;51.384;7.122;2023-05-29T13:30:45;23.50;1.00
2639;DHT22;1329;51.384;7.122;2023-05-29T13:33:17;23.60;1.00
2639;DHT22;1329;51.384;7.122;2023-05-29T13:35:58;23.60;1.00
2639;DHT22;1329;51.384;7.122;2023-05-29T13:38:28;23.70;1.00
2639;DHT22;1329;51.384;7.122;2023-05-29T13:40:55;23.70;1.00
2639;DHT22;1329;51.384;7.122;2023-05-29T13:43:22;23.70;1.00
2639;DHT22;1329;51.384;7.122;2023-05-29T13:45:50;23.70;1.00
2639;DHT22;1329;51.384;7.122;2023-05-29T13:48:17;23.70;1.00
2639;DHT22;1329;51.384;7.122;2023-05-29T13:50:44;23.70;1.00
2639;DHT22;1329;51.384;7.122;2023-05-29T13:53:10;23.70;1.00
2639;DHT22;1329;51.384;7.122;2023-05-29T13:55:37;23.80;1.00
2639;DHT22;1329;51.384;7.122;2023-05-29T13:58:04;23.70;1.00
2639;DHT22;1329;51.384;7.122;2023-05-29T14:00:31;23.70;1.00
2639;DHT22;1329;51.384;7.122;2023-05-29T14:02:59;23.80;1.00
2639;DHT22;1329;51.384;7.122;2023-05-29T14:05:26;23.80;1.00
2639;DHT22;1329;51.384;7.122;2023-05-29T14:07:53;23.70;1.00
2639;DHT22;1329;51.384;7.122;2023-05-29T14:10:21;23.70;1.00
2639;DHT22;1329;51.384;7.122;2023-05-29T14:12:50;23.70;1.00
2639;DHT22;1329;51.384;7.122;2023-05-29T14:15:17;23.70;1.00
2639;DHT22;1329;51.384;7.122;2023-05-29T14:17:45;23.70;1.00
2639;DHT22;1329;51.384;7.122;2023-05-29T14:20:13;23.70;1.00
2639;DHT22;1329;51.384;7.122;2023-05-29T14:22:40;23.70;1.00
2639;DHT22;1329;51.384;7.122;2023-05-29T14:25:08;23.80;1.00
2639;DHT22;1329;51.384;7.122;2023-05-29T14:27:35;23.90;1.00
2639;DHT22;1329;51.384;7.122;2023-05-29T14:30:02;23.90;1.00
2639;DHT22;1329;51.384;7.122;2023-05-29T14:32:30;23.90;1.00
2639;DHT22;1329;51.384;7.122;2023-05-29T14:34:57;23.90;1.00
2639;DHT22;1329;51.384;7.122;2023-05-29T14:37:32;23.80;1.00
2639;DHT22;1329;51.384;7.122;2023-05-29T14:40:07;23.80;1.00
2639;DHT22;1329;51.384;7.122;2023-05-29T14:42:37;23.80;1.00
2639;DHT22;1329;51.384;7.122;2023-05-29T14:45:05;23.70;1.00
2639;DHT22;1329;51.384;7.122;2023-05-29T14:47:33;23.70;1.00
2639;DHT22;1329;51.384;7.122;2023-05-29T14:50:00;23.70;1.00
2639;DHT22;1329;51.384;7.122;2023-05-29T14:52:28;23.70;1.00
2639;DHT22;1329;51.384;7.122;2023-05-29T14:54:55;23.80;1.00
2639;DHT22;1329;51.384;7.122;2023-05-29T14:57:22;23.80;1.00
2639;DHT22;1329;51.384;7.122;2023-05-29T14:59:49;23.90;1.00
2639;DHT22;1329;51.384;7.122;2023-05-29T15:02:16;23.90;1.00
2639;DHT22;1329;51.384;7.122;2023-05-29T15:04:43;23.90;1.00
2639;DHT22;1329;51.384;7.122;2023-05-29T15:07:10;24.00;1.00
2639;DHT22;1329;51.384;7.122;2023-05-29T15:09:38;24.00;1.00
2639;DHT22;1329;51.384;7.122;2023-05-29T15:12:07;24.00;1.00
2639;DHT22;1329;51.384;7.122;2023-05-29T15:14:34;24.00;1.00
2639;DHT22;1329;51.384;7.122;2023-05-29T15:17:01;24.00;1.00
2639;DHT22;1329;51.384;7.122;2023-05-29T15:19:29;24.00;1.00
2639;DHT22;1329;51.384;7.122;2023-05-29T15:21:56;24.00;1.00
2639;DHT22;1329;51.384;7.122;2023-05-29T15:24:24;24.10;1.00
2639;DHT22;1329;51.384;7.122;2023-05-29T15:26:52;24.10;1.00
2639;DHT22;1329;51.384;7.122;2023-05-29T15:29:19;24.10;1.00
2639;DHT22;1329;51.384;7.122;2023-05-29T15:31:46;24.20;1.00
2639;DHT22;1329;51.384;7.122;2023-05-29T15:34:13;24.20;1.00
2639;DHT22;1329;51.384;7.122;2023-05-29T15:36:40;24.30;1.00
2639;DHT22;1329;51.384;7.122;2023-05-29T15:39:08;24.40;1.00
2639;DHT22;1329;51.384;7.122;2023-05-29T15:41:35;24.40;1.00
2639;DHT22;1329;51.384;7.122;2023-05-29T15:44:03;24.50;1.00
2639;DHT22;1329;51.384;7.122;2023-05-29T15:46:30;24.60;1.00
2639;DHT22;1329;51.384;7.122;2023-05-29T15:48:57;24.60;1.00
2639;DHT22;1329;51.384;7.122;2023-05-29T15:51:24;24.60;1.00
2639;DHT22;1329;51.384;7.122;2023-05-29T15:53:52;24.70;1.00
2639;DHT22;1329;51.384;7.122;2023-05-29T15:56:19;24.70;1.00
2639;DHT22;1329;51.384;7.122;2023-05-29T15:58:52;24.70;1.00
2639;DHT22;1329;51.384;7.122;2023-05-29T16:01:20;24.70;1.00
2639;DHT22;1329;51.384;7.122;2023-05-29T16:03:47;24.70;1.00
2639;DHT22;1329;51.384;7.122;2023-05-29T16:06:14;24.70;1.00
2639;DHT22;1329;51.384;7.122;2023-05-29T16:08:43;24.70;1.00
2639;DHT22;1329;51.384;7.122;2023-05-29T16:11:09;24.70;1.00
2639;DHT22;1329;51.384;7.122;2023-05-29T16:13:36;24.60;1.00
2639;DHT22;1329;51.384;7.122;2023-05-29T16:16:04;24.60;1.00
2639;DHT22;1329;51.384;7.122;2023-05-29T16:18:32;24.60;1.00
2639;DHT22;1329;51.384;7.122;2023-05-29T16:20:59;24.60;1.00
2639;DHT22;1329;51.384;7.122;2023-05-29T16:23:26;24.70;1.00
2639;DHT22;1329;51.384;7.122;2023-05-29T16:25:53;24.70;1.00
2639;DHT22;1329;51.384;7.122;2023-05-29T16:28:20;24.70;1.00